createdAt,value
2022-08-19T00:00:09.485Z,37.47
2022-08-19T00:01:11.637Z,37.44
2022-08-19T00:02:13.445Z,37.67
2022-08-19T00:03:15.301Z,37.70
2022-08-19T00:04:19.772Z,37.77
2022-08-19T00:05:23.280Z,37.65
2022-08-19T00:06:25.995Z,38.00
2022-08-19T00:07:27.813Z,37.46
2022-08-19T00:08:29.793Z,37.54
2022-08-19T00:09:31.778Z,37.49
2022-08-19T00:10:35.086Z,37.82
2022-08-19T00:11:38.512Z,37.57
2022-08-19T00:12:46.790Z,37.61
2022-08-19T00:13:51.107Z,37.86
2022-08-19T00:14:55.099Z,37.73
2022-08-19T00:15:59.652Z,38.00
2022-08-19T00:17:03.505Z,37.79
2022-08-19T00:18:05.444Z,37.45
2022-08-19T00:19:07.833Z,37.92
2022-08-19T00:20:11.717Z,37.82
2022-08-19T00:21:13.849Z,37.93
2022-08-19T00:22:16.962Z,38.07
2022-08-19T00:23:19.910Z,37.96
2022-08-19T00:24:21.691Z,37.66
2022-08-19T00:25:30.372Z,37.76
2022-08-19T00:26:32.688Z,37.91
2022-08-19T00:27:34.893Z,37.89
2022-08-19T00:28:36.957Z,38.05
2022-08-19T00:29:39.483Z,37.88
2022-08-19T00:30:41.954Z,38.13
2022-08-19T00:31:44.973Z,38.12
2022-08-19T00:32:47.044Z,38.03
2022-08-19T00:33:51.594Z,37.80
2022-08-19T00:34:54.481Z,38.13
2022-08-19T00:35:56.466Z,37.79
2022-08-19T00:36:58.635Z,37.85
2022-08-19T00:38:00.667Z,37.98
2022-08-19T00:39:02.651Z,37.99
2022-08-19T00:40:06.397Z,38.03
2022-08-19T00:41:09.825Z,37.83
2022-08-19T00:42:12.401Z,38.18
2022-08-19T00:43:19.815Z,37.95
2022-08-19T00:44:29.644Z,37.87
2022-08-19T00:45:32.734Z,37.96
2022-08-19T00:46:40.898Z,37.99
2022-08-19T00:47:42.769Z,37.54
2022-08-19T00:48:44.590Z,37.55
2022-08-19T00:49:52.330Z,37.70
2022-08-19T00:50:56.611Z,37.70
2022-08-19T00:52:09.896Z,37.95
2022-08-19T00:53:18.729Z,37.76
2022-08-19T00:54:26.214Z,37.61
2022-08-19T00:55:34.546Z,37.54
2022-08-19T00:56:37.562Z,37.66
2022-08-19T00:57:42.856Z,38.16
2022-08-19T00:58:45.239Z,37.68
2022-08-19T01:00:01.568Z,38.02
2022-08-19T01:01:05.717Z,38.00
2022-08-19T01:02:08.428Z,37.82
2022-08-19T01:03:20.379Z,37.96
2022-08-19T01:04:22.267Z,37.97
2022-08-19T01:05:28.632Z,38.02
2022-08-19T01:06:33.281Z,38.11
2022-08-19T01:07:38.184Z,37.79
2022-08-19T01:08:40.310Z,38.06
2022-08-19T01:09:42.101Z,38.15
2022-08-19T01:10:51.313Z,37.97
2022-08-19T01:11:54.135Z,38.00
2022-08-19T01:12:57.087Z,37.63
2022-08-19T01:13:59.964Z,37.91
2022-08-19T01:15:02.842Z,38.06
2022-08-19T01:16:09.200Z,37.96
2022-08-19T01:17:12.518Z,38.16
2022-08-19T01:18:16.488Z,38.19
2022-08-19T01:19:28.821Z,38.05
2022-08-19T01:20:30.784Z,38.11
2022-08-19T01:21:38.848Z,38.30
2022-08-19T01:22:53.407Z,38.32
2022-08-19T01:23:55.591Z,38.39
2022-08-19T01:24:57.876Z,38.21
2022-08-19T01:26:02.020Z,38.33
2022-08-19T01:27:08.279Z,38.27
2022-08-19T01:28:33.735Z,38.39
2022-08-19T01:29:39.476Z,38.27
2022-08-19T01:30:44.467Z,38.21
2022-08-19T01:31:54.363Z,38.47
2022-08-19T01:32:56.992Z,38.74
2022-08-19T01:33:59.252Z,38.33
2022-08-19T01:35:03.189Z,38.14
2022-08-19T01:36:08.364Z,38.25
2022-08-19T01:37:12.411Z,38.54
2022-08-19T01:38:24.660Z,38.17
2022-08-19T01:39:27.843Z,38.49
2022-08-19T01:40:34.320Z,38.16
2022-08-19T01:41:36.416Z,38.73
2022-08-19T01:42:38.306Z,38.51
2022-08-19T01:44:12.372Z,38.27
2022-08-19T01:45:03.546Z,38.36
2022-08-19T01:46:05.793Z,38.26
2022-08-19T01:47:09.225Z,38.19
2022-08-19T01:48:11.619Z,38.49
2022-08-19T01:49:13.541Z,38.46
2022-08-19T01:50:15.636Z,38.39
2022-08-19T01:51:18.110Z,38.77
2022-08-19T01:52:20.859Z,38.73
2022-08-19T01:53:22.741Z,38.56
2022-08-19T01:54:28.850Z,38.54
2022-08-19T01:55:31.268Z,38.59
2022-08-19T01:56:33.083Z,38.75
2022-08-19T01:57:35.353Z,38.51
2022-08-19T01:58:41.885Z,38.77
2022-08-19T01:59:45.793Z,38.72
2022-08-19T02:00:47.820Z,38.75
2022-08-19T02:01:49.853Z,38.78
2022-08-19T02:02:51.897Z,38.53
2022-08-19T02:03:56.930Z,38.60
2022-08-19T02:05:00.323Z,38.73
2022-08-19T02:06:06.745Z,38.46
2022-08-19T02:07:09.261Z,38.49
2022-08-19T02:08:12.048Z,38.72
2022-08-19T02:09:13.924Z,38.60
2022-08-19T02:10:20.629Z,38.44
2022-08-19T02:11:27.764Z,38.73
2022-08-19T02:12:29.793Z,38.87
2022-08-19T02:13:33.947Z,38.77
2022-08-19T02:14:37.493Z,38.62
2022-08-19T02:15:39.584Z,38.53
2022-08-19T02:16:41.767Z,38.75
2022-08-19T02:17:43.838Z,38.66
2022-08-19T02:18:46.587Z,39.07
2022-08-19T02:19:48.923Z,39.10
2022-08-19T02:20:50.883Z,38.70
2022-08-19T02:21:52.744Z,38.97
2022-08-19T02:22:54.795Z,39.00
2022-08-19T02:23:57.015Z,38.78
2022-08-19T02:24:58.832Z,38.71
2022-08-19T02:26:00.788Z,39.08
2022-08-19T02:27:02.570Z,38.90
2022-08-19T02:28:05.108Z,39.00
2022-08-19T02:29:06.906Z,38.97
2022-08-19T02:30:14.090Z,39.02
2022-08-19T02:31:21.449Z,38.82
2022-08-19T02:32:23.299Z,38.95
2022-08-19T02:33:25.405Z,39.01
2022-08-19T02:34:27.248Z,39.08
2022-08-19T02:35:29.311Z,38.85
2022-08-19T02:36:31.355Z,39.13
2022-08-19T02:37:51.853Z,38.61
2022-08-19T02:38:55.539Z,38.96
2022-08-19T02:39:58.348Z,38.70
2022-08-19T02:41:06.887Z,38.77
2022-08-19T02:42:08.693Z,38.86
2022-08-19T02:43:10.904Z,38.98
2022-08-19T02:44:26.477Z,38.78
2022-08-19T02:45:41.515Z,38.84
2022-08-19T02:46:45.984Z,38.35
2022-08-19T02:47:48.361Z,38.91
2022-08-19T02:48:55.037Z,38.95
2022-08-19T02:49:56.916Z,38.84
2022-08-19T02:50:58.751Z,39.21
2022-08-19T02:52:00.544Z,38.62
2022-08-19T02:53:02.336Z,38.73
2022-08-19T02:54:05.540Z,38.49
2022-08-19T02:55:07.984Z,38.90
2022-08-19T02:56:09.814Z,38.83
2022-08-19T02:57:12.081Z,38.47
2022-08-19T02:58:15.715Z,38.79
2022-08-19T02:59:17.535Z,39.11
2022-08-19T03:00:22.308Z,38.53
2022-08-19T03:01:32.978Z,38.67
2022-08-19T03:02:34.840Z,38.77
2022-08-19T03:03:36.810Z,38.77
2022-08-19T03:04:38.680Z,39.09
2022-08-19T03:05:48.301Z,39.03
2022-08-19T03:07:02.583Z,38.94
2022-08-19T03:08:14.231Z,38.74
2022-08-19T03:09:17.047Z,38.86
2022-08-19T03:10:19.386Z,39.13
2022-08-19T03:11:24.636Z,38.56
2022-08-19T03:12:26.491Z,38.89
2022-08-19T03:13:29.163Z,39.04
2022-08-19T03:14:35.116Z,39.07
2022-08-19T03:15:41.234Z,39.23
2022-08-19T03:16:46.378Z,38.74
2022-08-19T03:17:48.160Z,38.81
2022-08-19T03:18:50.383Z,39.26
2022-08-19T03:19:52.453Z,39.16
2022-08-19T03:20:55.630Z,38.96
2022-08-19T03:21:57.465Z,39.21
2022-08-19T03:22:59.621Z,39.21
2022-08-19T03:24:05.484Z,39.18
2022-08-19T03:25:07.481Z,39.22
2022-08-19T03:26:16.491Z,38.94
2022-08-19T03:27:18.784Z,39.20
2022-08-19T03:28:21.752Z,38.82
2022-08-19T03:29:31.172Z,38.99
2022-08-19T03:30:33.744Z,39.30
2022-08-19T03:31:43.976Z,38.91
2022-08-19T03:32:57.091Z,38.80
2022-08-19T03:33:59.146Z,38.92
2022-08-19T03:35:01.335Z,39.12
2022-08-19T03:36:06.523Z,39.35
2022-08-19T03:37:15.070Z,39.33
2022-08-19T03:38:16.853Z,39.47
2022-08-19T03:39:19.044Z,38.89
2022-08-19T03:40:21.056Z,39.33
2022-08-19T03:41:25.723Z,39.20
2022-08-19T03:42:49.242Z,39.03
2022-08-19T03:43:53.044Z,39.02
2022-08-19T03:44:54.928Z,39.33
2022-08-19T03:46:13.492Z,39.19
2022-08-19T03:47:17.964Z,39.12
2022-08-19T03:48:19.818Z,39.18
2022-08-19T03:49:27.118Z,39.27
2022-08-19T03:50:30.672Z,39.17
2022-08-19T03:51:36.047Z,39.33
2022-08-19T03:52:38.378Z,39.49
2022-08-19T03:53:40.529Z,39.24
2022-08-19T03:54:43.039Z,39.23
2022-08-19T03:55:45.532Z,39.28
2022-08-19T03:56:49.755Z,39.38
2022-08-19T03:57:51.550Z,39.67
2022-08-19T03:58:53.675Z,39.48
2022-08-19T03:59:55.472Z,39.42
2022-08-19T04:01:12.313Z,39.35
2022-08-19T04:02:14.831Z,39.35
2022-08-19T04:03:17.241Z,39.33
2022-08-19T04:04:20.095Z,39.26
2022-08-19T04:05:21.923Z,39.21
2022-08-19T04:06:32.340Z,39.13
2022-08-19T04:07:34.851Z,39.67
2022-08-19T04:08:36.662Z,39.41
2022-08-19T04:09:38.782Z,39.48
2022-08-19T04:10:41.656Z,39.69
2022-08-19T04:11:48.741Z,39.44
2022-08-19T04:12:50.928Z,39.31
2022-08-19T04:13:54.944Z,39.52
2022-08-19T04:14:56.766Z,39.49
2022-08-19T04:15:58.607Z,39.57
2022-08-19T04:17:01.774Z,39.58
2022-08-19T04:18:03.700Z,39.35
2022-08-19T04:19:06.844Z,39.67
2022-08-19T04:20:08.981Z,39.90
2022-08-19T04:21:20.979Z,39.89
2022-08-19T04:22:22.776Z,39.76
2022-08-19T04:23:24.815Z,39.38
2022-08-19T04:24:27.314Z,39.55
2022-08-19T04:25:29.105Z,39.75
2022-08-19T04:26:34.975Z,39.51
2022-08-19T04:27:36.697Z,39.93
2022-08-19T04:28:38.525Z,39.60
2022-08-19T04:29:41.467Z,40.01
2022-08-19T04:30:46.415Z,39.90
2022-08-19T04:31:48.985Z,39.65
2022-08-19T04:32:51.840Z,39.60
2022-08-19T04:33:58.600Z,39.68
2022-08-19T04:35:02.021Z,39.63
2022-08-19T04:36:20.587Z,39.60
2022-08-19T04:37:22.728Z,39.69
2022-08-19T04:38:24.823Z,39.79
2022-08-19T04:39:49.903Z,39.66
2022-08-19T04:41:11.387Z,39.41
2022-08-19T04:42:32.580Z,39.54
2022-08-19T04:43:36.339Z,39.28
2022-08-19T04:44:46.109Z,39.53
2022-08-19T04:45:48.172Z,39.43
2022-08-19T04:46:52.109Z,39.66
2022-08-19T04:47:58.875Z,39.42
2022-08-19T04:49:23.350Z,39.57
2022-08-19T04:50:27.330Z,39.72
2022-08-19T04:51:32.234Z,39.94
2022-08-19T04:52:34.330Z,39.53
2022-08-19T04:53:38.851Z,39.95
2022-08-19T04:54:40.680Z,39.87
2022-08-19T04:55:43.710Z,39.65
2022-08-19T04:56:45.609Z,39.87
2022-08-19T04:57:47.599Z,39.82
2022-08-19T04:58:52.588Z,39.76
2022-08-19T04:59:57.712Z,40.01
2022-08-19T05:01:01.241Z,39.65
2022-08-19T05:02:05.349Z,40.08
2022-08-19T05:03:07.791Z,39.94
2022-08-19T05:04:10.569Z,39.65
2022-08-19T05:05:13.628Z,39.81
2022-08-19T05:06:18.230Z,39.81
2022-08-19T05:07:20.053Z,39.97
2022-08-19T05:08:31.392Z,39.61
2022-08-19T05:09:57.132Z,39.75
2022-08-19T05:10:55.605Z,39.61
2022-08-19T05:11:57.442Z,39.70
2022-08-19T05:12:59.818Z,39.73
2022-08-19T05:14:02.359Z,39.57
2022-08-19T05:15:06.768Z,40.07
2022-08-19T05:16:08.565Z,39.66
2022-08-19T05:18:50.576Z,39.52
2022-08-19T05:20:10.911Z,39.63
2022-08-19T05:21:34.329Z,39.37
2022-08-19T05:22:36.589Z,38.99
2022-08-19T05:23:38.450Z,39.28
2022-08-19T05:24:56.485Z,38.97
2022-08-19T05:26:02.415Z,39.44
2022-08-19T05:27:06.603Z,39.00
2022-08-19T05:28:08.379Z,39.34
2022-08-19T05:29:11.226Z,38.81
2022-08-19T05:30:13.443Z,38.72
2022-08-19T05:31:15.453Z,38.65
2022-08-19T05:32:17.756Z,38.88
2022-08-19T05:33:19.949Z,38.81
2022-08-19T05:34:24.197Z,39.04
2022-08-19T05:35:25.983Z,38.74
2022-08-19T05:36:28.899Z,38.42
2022-08-19T05:37:30.838Z,38.31
2022-08-19T05:38:32.592Z,38.67
2022-08-19T05:39:38.129Z,38.45
2022-08-19T05:40:40.259Z,38.02
2022-08-19T05:41:47.385Z,37.95
2022-08-19T05:42:54.779Z,37.85
2022-08-19T05:43:59.025Z,37.86
2022-08-19T05:45:00.931Z,37.77
2022-08-19T05:46:02.957Z,38.13
2022-08-19T05:47:07.505Z,37.97
2022-08-19T05:48:14.061Z,37.87
2022-08-19T05:49:17.425Z,37.90
2022-08-19T05:50:19.258Z,37.81
2022-08-19T05:51:21.098Z,37.65
2022-08-19T05:52:25.908Z,37.43
2022-08-19T05:53:28.256Z,37.36
2022-08-19T05:54:31.291Z,37.59
2022-08-19T05:55:34.086Z,37.69
2022-08-19T05:56:39.058Z,37.82
2022-08-19T05:57:41.069Z,37.53
2022-08-19T05:58:44.055Z,37.78
2022-08-19T05:59:49.432Z,37.44
2022-08-19T06:00:55.301Z,37.40
2022-08-19T06:01:58.273Z,37.27
2022-08-19T06:03:11.959Z,37.48
2022-08-19T06:04:15.023Z,37.14
2022-08-19T06:05:16.891Z,37.53
2022-08-19T06:06:19.902Z,37.24
2022-08-19T06:07:21.850Z,37.53
2022-08-19T06:08:34.475Z,37.48
2022-08-19T06:09:38.444Z,37.09
2022-08-19T06:10:40.421Z,37.17
2022-08-19T06:11:59.300Z,37.50
2022-08-19T06:13:01.311Z,37.10
2022-08-19T06:14:16.495Z,37.25
2022-08-19T06:15:18.912Z,37.56
2022-08-19T06:16:23.379Z,37.22
2022-08-19T06:17:26.957Z,37.34
2022-08-19T06:18:29.033Z,37.64
2022-08-19T06:19:31.609Z,37.44
2022-08-19T06:20:54.497Z,37.32
2022-08-19T06:21:55.372Z,37.42
2022-08-19T06:22:57.205Z,37.04
2022-08-19T06:23:59.929Z,37.60
2022-08-19T06:25:01.968Z,37.31
2022-08-19T06:26:03.859Z,37.46
2022-08-19T06:27:06.760Z,37.00
2022-08-19T06:28:15.946Z,37.38
2022-08-19T06:29:23.665Z,37.43
2022-08-19T06:30:26.156Z,37.22
2022-08-19T06:31:30.011Z,37.31
2022-08-19T06:32:32.384Z,36.85
2022-08-19T06:33:34.850Z,37.09
2022-08-19T06:34:37.355Z,37.15
2022-08-19T06:35:43.276Z,37.58
2022-08-19T06:36:48.616Z,37.32
2022-08-19T06:37:50.446Z,37.30
2022-08-19T06:38:52.333Z,36.85
2022-08-19T06:39:54.175Z,37.03
2022-08-19T06:41:07.402Z,37.33
2022-08-19T06:42:12.901Z,37.03
2022-08-19T06:43:18.521Z,37.37
2022-08-19T06:44:23.403Z,37.13
2022-08-19T06:45:34.947Z,37.08
2022-08-19T06:46:38.914Z,36.98
2022-08-19T06:47:45.004Z,36.79
2022-08-19T06:48:50.648Z,36.95
2022-08-19T06:50:01.080Z,37.10
2022-08-19T06:51:08.799Z,37.12
2022-08-19T06:52:14.219Z,37.32
2022-08-19T06:53:16.129Z,37.03
2022-08-19T06:54:19.963Z,37.26
2022-08-19T06:55:22.274Z,37.17
2022-08-19T06:56:35.605Z,37.23
2022-08-19T06:57:37.457Z,36.92
2022-08-19T06:58:39.517Z,36.84
2022-08-19T06:59:41.808Z,37.26
2022-08-19T07:00:43.841Z,37.25
2022-08-19T07:01:49.425Z,37.14
2022-08-19T07:02:54.268Z,36.93
2022-08-19T07:03:59.346Z,37.39
2022-08-19T07:05:04.674Z,37.47
2022-08-19T07:06:21.333Z,37.16
2022-08-19T07:07:35.152Z,37.21
2022-08-19T07:08:42.098Z,37.04
2022-08-19T07:09:46.205Z,37.01
2022-08-19T07:11:02.000Z,36.92
2022-08-19T07:12:14.508Z,36.86
2022-08-19T07:13:16.407Z,37.15
2022-08-19T07:14:21.128Z,36.97
2022-08-19T07:15:24.749Z,37.28
2022-08-19T07:16:29.400Z,37.30
2022-08-19T07:17:34.639Z,37.18
2022-08-19T07:18:37.405Z,37.13
2022-08-19T07:19:42.181Z,37.30
2022-08-19T07:20:44.155Z,37.32
2022-08-19T07:21:50.993Z,37.10
2022-08-19T07:22:53.006Z,37.21
2022-08-19T07:23:57.542Z,36.79
2022-08-19T07:24:59.315Z,36.82
2022-08-19T07:26:14.795Z,36.98
2022-08-19T07:27:17.112Z,37.11
2022-08-19T07:28:24.171Z,36.83
2022-08-19T07:29:28.435Z,37.38
2022-08-19T07:30:31.507Z,37.54
2022-08-19T07:31:37.841Z,37.24
2022-08-19T07:32:41.471Z,37.03
2022-08-19T07:33:44.145Z,37.42
2022-08-19T07:34:46.513Z,37.45
2022-08-19T07:35:48.987Z,37.00
2022-08-19T07:36:51.613Z,37.12
2022-08-19T07:37:54.295Z,37.35
2022-08-19T07:38:56.281Z,36.86
2022-08-19T07:39:58.159Z,36.80
2022-08-19T07:41:00.281Z,36.91
2022-08-19T07:42:07.456Z,36.99
2022-08-19T07:43:13.930Z,37.03
2022-08-19T07:44:16.994Z,37.14
2022-08-19T07:45:18.844Z,37.05
2022-08-19T07:46:24.026Z,36.97
2022-08-19T07:47:49.644Z,37.01
2022-08-19T07:48:50.255Z,37.34
2022-08-19T07:49:52.251Z,36.95
2022-08-19T07:50:58.827Z,37.12
2022-08-19T07:52:05.924Z,36.96
2022-08-19T07:53:07.897Z,37.02
2022-08-19T07:54:09.825Z,36.95
2022-08-19T07:55:42.652Z,36.83
2022-08-19T07:56:33.601Z,36.75
2022-08-19T07:57:35.456Z,37.01
2022-08-19T07:58:40.154Z,36.88
2022-08-19T07:59:42.039Z,36.97
2022-08-19T08:00:46.920Z,36.72
2022-08-19T08:01:50.190Z,36.73
2022-08-19T08:02:55.799Z,36.95
2022-08-19T08:04:17.725Z,36.68
2022-08-19T08:05:41.714Z,36.57
2022-08-19T08:07:03.814Z,36.69
2022-08-19T08:08:47.348Z,36.61
2022-08-19T08:09:51.152Z,36.85
2022-08-19T08:10:56.794Z,36.58
2022-08-19T08:12:13.348Z,36.72
2022-08-19T08:13:27.482Z,36.77
2022-08-19T08:14:35.117Z,36.52
2022-08-19T08:15:43.045Z,37.12
2022-08-19T08:16:47.170Z,36.92
2022-08-19T08:17:51.697Z,36.74
2022-08-19T08:18:53.828Z,36.86
2022-08-19T08:19:55.922Z,36.81
2022-08-19T08:20:58.870Z,36.60
2022-08-19T08:22:02.497Z,37.14
2022-08-19T08:23:23.257Z,36.46
2022-08-19T08:24:28.483Z,36.60
2022-08-19T08:25:32.341Z,36.91
2022-08-19T08:26:34.636Z,36.79
2022-08-19T08:27:42.020Z,37.08
2022-08-19T08:28:47.993Z,36.91
2022-08-19T08:29:51.543Z,36.87
2022-08-19T08:30:53.476Z,36.89
2022-08-19T08:31:58.593Z,37.02
2022-08-19T08:33:02.687Z,36.94
2022-08-19T08:34:04.924Z,36.72
2022-08-19T08:35:09.280Z,37.17
2022-08-19T08:36:12.548Z,37.08
2022-08-19T08:37:16.153Z,37.04
2022-08-19T08:38:18.873Z,36.62
2022-08-19T08:39:22.660Z,36.83
2022-08-19T08:40:50.996Z,37.14
2022-08-19T08:42:24.807Z,36.77
2022-08-19T08:43:34.257Z,36.79
2022-08-19T08:44:50.374Z,36.57
2022-08-19T08:46:02.769Z,37.00
2022-08-19T08:47:13.454Z,36.81
2022-08-19T08:48:24.655Z,36.79
2022-08-19T08:49:51.293Z,37.00
2022-08-19T08:50:56.058Z,36.79
2022-08-19T08:52:21.452Z,36.79
2022-08-19T08:53:29.857Z,36.86
2022-08-19T08:54:40.515Z,36.69
2022-08-19T08:55:51.539Z,36.65
2022-08-19T08:56:54.777Z,36.83
2022-08-19T08:58:02.891Z,37.06
2022-08-19T08:59:37.445Z,36.87
2022-08-19T09:00:43.692Z,36.65
2022-08-19T09:01:45.752Z,36.91
2022-08-19T09:02:50.389Z,36.96
2022-08-19T09:03:53.198Z,37.09
2022-08-19T09:04:55.850Z,37.11
2022-08-19T09:06:04.541Z,36.99
2022-08-19T09:07:36.345Z,37.09
2022-08-19T09:08:46.582Z,36.84
2022-08-19T09:09:52.344Z,36.94
2022-08-19T09:10:58.690Z,37.05
2022-08-19T09:12:27.172Z,36.84
2022-08-19T09:13:42.978Z,36.71
2022-08-19T09:15:05.825Z,36.62
2022-08-19T09:16:28.956Z,36.96
2022-08-19T09:17:34.612Z,37.00
2022-08-19T09:18:42.998Z,37.12
2022-08-19T09:20:09.793Z,36.67
2022-08-19T09:21:11.857Z,36.45
2022-08-19T09:22:13.959Z,36.75
2022-08-19T09:23:27.305Z,36.59
2022-08-19T09:24:31.198Z,37.21
2022-08-19T09:25:35.503Z,37.38
2022-08-19T09:26:48.551Z,37.09
2022-08-19T09:27:55.868Z,36.83
2022-08-19T09:29:07.896Z,37.09
2022-08-19T09:30:14.461Z,37.01
2022-08-19T09:31:21.080Z,37.18
2022-08-19T09:32:26.661Z,37.04
2022-08-19T09:33:28.997Z,37.41
2022-08-19T09:34:33.255Z,37.21
2022-08-19T09:35:49.759Z,37.06
2022-08-19T09:36:56.564Z,37.03
2022-08-19T09:37:59.783Z,37.09
2022-08-19T09:39:02.368Z,37.16
2022-08-19T09:40:05.230Z,37.19
2022-08-19T09:41:13.391Z,37.47
2022-08-19T09:42:16.422Z,37.18
2022-08-19T09:43:44.119Z,37.02
2022-08-19T09:44:47.524Z,37.00
2022-08-19T09:45:49.345Z,37.13
2022-08-19T09:46:52.003Z,36.84
2022-08-19T09:47:55.201Z,37.19
2022-08-19T09:49:06.127Z,37.23
2022-08-19T09:50:10.902Z,37.27
2022-08-19T09:51:23.669Z,37.01
2022-08-19T09:52:25.524Z,36.66
2022-08-19T09:53:34.764Z,36.69
2022-08-19T09:54:40.207Z,37.03
2022-08-19T09:55:46.154Z,36.80
2022-08-19T09:56:48.140Z,36.64
2022-08-19T09:57:50.113Z,36.64
2022-08-19T09:58:52.303Z,36.85
2022-08-19T09:59:54.735Z,36.40
2022-08-19T10:00:58.369Z,36.57
2022-08-19T10:02:03.848Z,36.75
2022-08-19T10:03:12.728Z,36.24
2022-08-19T10:04:20.093Z,36.40
2022-08-19T10:05:42.474Z,36.76
2022-08-19T10:06:46.661Z,36.12
2022-08-19T10:07:48.919Z,36.22
2022-08-19T10:08:52.646Z,36.20
2022-08-19T10:09:54.663Z,36.38
2022-08-19T10:10:58.982Z,36.63
2022-08-19T10:12:20.544Z,36.46
2022-08-19T10:13:26.228Z,36.35
2022-08-19T10:14:28.493Z,36.87
2022-08-19T10:15:30.313Z,36.52
2022-08-19T10:16:47.085Z,36.34
2022-08-19T10:17:55.294Z,36.20
2022-08-19T10:18:58.759Z,36.20
2022-08-19T10:20:01.108Z,36.63
2022-08-19T10:21:06.373Z,36.33
2022-08-19T10:22:10.110Z,36.55
2022-08-19T10:23:14.593Z,36.65
2022-08-19T10:24:16.425Z,36.63
2022-08-19T10:25:20.485Z,36.43
2022-08-19T10:26:30.979Z,36.62
2022-08-19T10:27:32.877Z,36.03
2022-08-19T10:28:39.771Z,36.54
2022-08-19T10:29:46.300Z,36.43
2022-08-19T10:30:48.717Z,35.99
2022-08-19T10:32:01.236Z,36.37
2022-08-19T10:33:10.820Z,35.91
2022-08-19T10:34:27.159Z,35.93
2022-08-19T10:35:30.545Z,35.92
2022-08-19T10:36:56.162Z,35.97
2022-08-19T10:38:02.103Z,36.32
2022-08-19T10:39:08.694Z,36.18
2022-08-19T10:40:12.455Z,36.50
2022-08-19T10:41:20.222Z,36.29
2022-08-19T10:42:22.227Z,36.06
2022-08-19T10:43:24.633Z,36.08
2022-08-19T10:44:32.065Z,36.71
2022-08-19T10:45:34.512Z,36.47
2022-08-19T10:46:43.539Z,36.44
2022-08-19T10:47:47.941Z,36.60
2022-08-19T10:48:50.865Z,36.29
2022-08-19T10:50:12.965Z,35.99
2022-08-19T10:51:33.532Z,35.96
2022-08-19T10:52:39.108Z,36.34
2022-08-19T10:53:40.993Z,36.18
2022-08-19T10:55:05.159Z,36.50
2022-08-19T10:56:28.721Z,35.80
2022-08-19T10:57:52.292Z,36.06
2022-08-19T10:58:58.592Z,35.87
2022-08-19T11:00:00.453Z,36.09
2022-08-19T11:01:02.325Z,36.40
2022-08-19T11:02:07.013Z,36.50
2022-08-19T11:03:09.684Z,35.99
2022-08-19T11:04:14.764Z,36.49
2022-08-19T11:05:18.212Z,36.42
2022-08-19T11:06:21.587Z,36.49
2022-08-19T11:07:26.207Z,36.47
2022-08-19T11:08:28.613Z,36.21
2022-08-19T11:09:34.088Z,36.37
2022-08-19T11:10:37.472Z,36.83
2022-08-19T11:11:42.526Z,36.63
2022-08-19T11:12:44.278Z,36.40
2022-08-19T11:13:46.953Z,36.44
2022-08-19T11:14:50.915Z,36.95
2022-08-19T11:16:07.739Z,36.62
2022-08-19T11:17:09.782Z,36.57
2022-08-19T11:18:13.351Z,36.46
2022-08-19T11:19:18.213Z,36.88
2022-08-19T11:20:20.115Z,37.32
2022-08-19T11:21:25.309Z,36.61
2022-08-19T11:22:35.403Z,36.92
2022-08-19T11:23:42.858Z,37.14
2022-08-19T11:24:44.675Z,37.24
2022-08-19T11:25:46.920Z,37.04
2022-08-19T11:26:50.952Z,37.17
2022-08-19T11:27:53.404Z,37.23
2022-08-19T11:28:56.382Z,36.98
2022-08-19T11:29:58.243Z,36.96
2022-08-19T11:31:00.289Z,36.99
2022-08-19T11:32:05.843Z,37.26
2022-08-19T11:33:07.711Z,37.79
2022-08-19T11:34:13.260Z,37.38
2022-08-19T11:35:15.502Z,37.80
2022-08-19T11:36:17.722Z,37.18
2022-08-19T11:37:19.544Z,37.33
2022-08-19T11:38:21.503Z,36.78
2022-08-19T11:39:23.838Z,37.20
2022-08-19T11:40:25.648Z,37.62
2022-08-19T11:41:27.919Z,37.33
2022-08-19T11:42:48.256Z,36.87
2022-08-19T11:43:52.105Z,36.77
2022-08-19T11:44:55.092Z,37.28
2022-08-19T11:45:57.540Z,37.46
2022-08-19T11:47:09.214Z,37.50
2022-08-19T11:48:11.466Z,37.13
2022-08-19T11:49:19.735Z,37.39
2022-08-19T11:50:22.153Z,37.57
2022-08-19T11:51:28.138Z,37.98
2022-08-19T11:52:30.645Z,37.70
2022-08-19T11:53:32.811Z,37.97
2022-08-19T11:54:34.680Z,37.45
2022-08-19T11:55:43.411Z,36.96
2022-08-19T11:56:47.217Z,37.60
2022-08-19T11:57:49.086Z,37.43
2022-08-19T11:58:51.887Z,36.90
2022-08-19T11:59:53.992Z,37.27
2022-08-19T12:00:56.013Z,37.00
2022-08-19T12:01:58.879Z,37.43
2022-08-19T12:03:00.716Z,37.75
2022-08-19T12:04:05.473Z,37.06
2022-08-19T12:05:12.000Z,37.07
2022-08-19T12:06:20.959Z,36.90
2022-08-19T12:07:22.894Z,36.86
2022-08-19T12:08:24.763Z,37.01
2022-08-19T12:09:26.897Z,37.63
2022-08-19T12:10:33.815Z,37.09
2022-08-19T12:11:35.719Z,37.31
2022-08-19T12:12:41.444Z,37.44
2022-08-19T12:13:46.893Z,37.83
2022-08-19T12:14:48.943Z,37.50
2022-08-19T12:15:51.093Z,37.10
2022-08-19T12:16:52.944Z,37.68
2022-08-19T12:17:57.455Z,37.41
2022-08-19T12:19:04.564Z,36.86
2022-08-19T12:20:08.692Z,37.25
2022-08-19T12:21:12.142Z,37.24
2022-08-19T12:22:13.965Z,37.00
2022-08-19T12:23:16.273Z,37.63
2022-08-19T12:24:24.084Z,37.28
2022-08-19T12:25:26.104Z,37.52
2022-08-19T12:26:30.727Z,37.57
2022-08-19T12:27:40.889Z,37.43
2022-08-19T12:28:44.292Z,36.90
2022-08-19T12:29:46.094Z,37.04
2022-08-19T12:30:49.510Z,37.53
2022-08-19T12:31:51.983Z,36.98
2022-08-19T12:32:54.520Z,37.32
2022-08-19T12:33:56.540Z,37.17
2022-08-19T12:34:58.415Z,37.37
2022-08-19T12:36:06.856Z,37.20
2022-08-19T12:37:09.238Z,37.09
2022-08-19T12:38:11.863Z,37.36
2022-08-19T12:39:13.947Z,37.37
2022-08-19T12:40:18.937Z,37.39
2022-08-19T12:41:23.175Z,37.12
2022-08-19T12:42:25.292Z,37.27
2022-08-19T12:43:28.121Z,36.98
2022-08-19T12:44:33.600Z,37.41
2022-08-19T12:45:36.047Z,37.25
2022-08-19T12:46:39.330Z,37.74
2022-08-19T12:47:43.725Z,37.83
2022-08-19T12:48:51.093Z,37.60
2022-08-19T12:49:57.575Z,37.51
2022-08-19T12:50:59.590Z,37.71
2022-08-19T12:52:02.236Z,37.61
2022-08-19T12:53:04.057Z,37.24
2022-08-19T12:54:06.099Z,37.89
2022-08-19T12:55:09.510Z,37.79
2022-08-19T12:56:12.961Z,37.54
2022-08-19T12:57:14.936Z,37.66
2022-08-19T12:58:18.144Z,37.31
2022-08-19T12:59:20.086Z,37.42
2022-08-19T13:00:23.228Z,37.45
2022-08-19T13:01:25.174Z,37.70
2022-08-19T13:02:27.557Z,37.21
2022-08-19T13:03:30.759Z,37.13
2022-08-19T13:04:36.225Z,37.68
2022-08-19T13:05:38.094Z,37.43
2022-08-19T13:06:39.950Z,37.40
2022-08-19T13:07:42.227Z,37.60
2022-08-19T13:08:44.039Z,37.73
2022-08-19T13:09:48.461Z,37.88
2022-08-19T13:10:50.371Z,37.22
2022-08-19T13:11:52.186Z,37.72
2022-08-19T13:12:54.303Z,37.81
2022-08-19T13:13:56.339Z,37.69
2022-08-19T13:14:58.323Z,37.34
2022-08-19T13:16:04.519Z,37.87
2022-08-19T13:17:06.378Z,38.06
2022-08-19T13:18:09.993Z,37.83
2022-08-19T13:19:14.214Z,37.83
2022-08-19T13:20:18.678Z,37.36
2022-08-19T13:21:23.924Z,37.62
2022-08-19T13:22:26.040Z,37.23
2022-08-19T13:23:28.048Z,37.50
2022-08-19T13:24:33.936Z,37.31
2022-08-19T13:25:37.219Z,37.12
2022-08-19T13:26:39.016Z,37.28
2022-08-19T13:27:41.387Z,37.31
2022-08-19T13:29:04.188Z,37.70
2022-08-19T13:30:27.834Z,37.28
2022-08-19T13:31:51.436Z,37.82
2022-08-19T13:33:12.173Z,37.89
2022-08-19T13:34:15.623Z,37.18
2022-08-19T13:35:17.870Z,37.18
2022-08-19T13:36:19.849Z,37.27
2022-08-19T13:37:41.706Z,37.47
2022-08-19T13:38:43.576Z,37.44
2022-08-19T13:39:46.201Z,37.53
2022-08-19T13:40:50.633Z,37.88
2022-08-19T13:41:52.463Z,37.32
2022-08-19T13:42:55.961Z,37.50
2022-08-19T13:43:58.439Z,37.88
2022-08-19T13:45:00.605Z,37.62
2022-08-19T13:46:10.850Z,37.97
2022-08-19T13:47:14.960Z,37.66
2022-08-19T13:48:17.573Z,37.51
2022-08-19T13:49:19.987Z,37.68
2022-08-19T13:50:26.585Z,37.89
2022-08-19T13:51:28.399Z,37.76
2022-08-19T13:52:30.601Z,37.90
2022-08-19T13:53:32.409Z,37.65
2022-08-19T13:54:34.533Z,38.12
2022-08-19T13:55:38.504Z,37.86
2022-08-19T13:56:45.945Z,38.69
2022-08-19T13:57:52.847Z,37.55
2022-08-19T13:58:54.982Z,37.64
2022-08-19T14:00:02.496Z,37.32
2022-08-19T14:01:07.486Z,37.44
2022-08-19T14:02:09.417Z,37.95
2022-08-19T14:03:11.666Z,37.82
2022-08-19T14:04:13.463Z,37.46
2022-08-19T14:05:17.393Z,38.14